Etusivu
METAR-TAF:

METAR-TAF

Lentoasemat :

Chongqing, Kiina

Chongqing Jiangbein kansainvälinen lentoasema

Leveyspiiri: 29-31N, Pituuspiiri: 106-29E, korkeus merenpinnasta: 351 m

Tämänhetkinen sää

Tämä raportti tehtiin 17 tuntia ja 44 minuuttia sitten, kello 15.00 UTC
Tuuli 10 kn pohjoisesta/koillisesta
Lämpötila 10°C
Kosteus 82%
Ilmanpaine 1019 hPa
Näkyvyys 10 km tai enemmän
Muutamia pilviä 2000 ft:n korkeudessa

METAR: ZUCK 201500Z 03005MPS 9999 FEW020 10/07 Q1019 NOSIG

Aika: 16:44 (08:44 UTC)

Sääennuste

Tämä raportti tehtiin 23 tuntia ja 38 minuuttia sitten, kello 09.06 UTC
Ennuste voimassa 20. päivästä klo 12 UTC - 21. päivään klo 12 UTC
Tuuli 6 kn koillisesta
Näkyvyys: 5000 m
Hajanaisia pilviä 5000 ft:n korkeudessa
utua

TAF: ZUCK 200906Z 2012/2112 05003MPS 5000 BR SCT050 TX13/2108Z TN09/2022Z

Säähavainnot ja -ennusteet yli 4000 lentoasemalta (METAR- ja TAF-raportit).

Käytössä olevat sääasemat on merkitty karttaan keltaisilla ja punaisilla pisteillä.

Aseta hiiri pisteen päälle nähdäksesi sääaseman nimen.

Klikkaa sitten nähdäksesi säähavainnot ja -ennusteet.

Kartan vaihtaminen: klikkaa mustalla rastilla varustettuja vihreitä pisteitä, niin voit zoomata sisään; viivalla varustettua vihreää pistettä, niin voit zoomata ulos tai vihreitä nuolia, niin pääset viereisille kartoille.


METAR-TAF: